Time;durP1;ratioP1;P1;durP2;ratioP2;P2;SDS_P1;SDS_P2;PMS_P1;PMS_P2;Temp;Humidity;BMP_temperature;BMP_pressure;BME280_temperature;BME280_humidity;BME280_pressure;Samples;Min_cycle;Max_cycle;Signal;HPM_P1;HPM_P2
2021/05/14 00:02:19;;;;;;;14.10;5.53;;;;;;;11.56;64.87;99676.02;126211;1099;104592;-79
2021/05/14 00:04:49;;;;;;;11.93;5.60;;;;;;;11.58;64.85;99680.45;126244;1099;104220;-78
2021/05/14 00:07:18;;;;;;;12.70;5.57;;;;;;;11.61;64.91;99680.52;126151;1099;104421;-78
2021/05/14 00:09:48;;;;;;;13.23;6.07;;;;;;;11.63;64.85;99681.42;126210;1099;104171;-78
2021/05/14 00:12:17;;;;;;;12.30;5.87;;;;;;;11.62;64.75;99682.27;126182;1099;104213;-78
2021/05/14 00:14:47;;;;;;;13.23;6.30;;;;;;;11.63;64.97;99683.17;126221;1099;104280;-78
2021/05/14 00:17:16;;;;;;;10.33;5.30;;;;;;;11.61;65.13;99679.61;126215;1099;104230;-79
2021/05/14 00:19:45;;;;;;;11.23;5.07;;;;;;;11.60;65.16;99677.86;126210;1099;104176;-79
2021/05/14 00:22:14;;;;;;;14.23;5.27;;;;;;;11.60;65.04;99672.60;126183;1099;104162;-79
2021/05/14 00:24:47;;;;;;;9.30;4.80;;;;;;;11.58;65.58;99672.58;126221;1099;104185;-78
2021/05/14 00:27:16;;;;;;;11.60;4.90;;;;;;;11.59;65.31;99671.69;126205;1099;104152;-79
2021/05/14 00:29:46;;;;;;;15.67;5.83;;;;;;;11.58;65.28;99669.08;125280;1099;105497;-78
2021/05/14 00:32:15;;;;;;;14.27;6.23;;;;;;;11.57;65.25;99662.03;125098;1102;104230;-78
2021/05/14 00:34:47;;;;;;;13.33;5.97;;;;;;;11.56;65.39;99665.51;125245;1099;101908;-78
2021/05/14 00:37:19;;;;;;;10.20;5.07;;;;;;;11.54;65.53;99662.85;125301;1099;104143;-78
2021/05/14 00:39:49;;;;;;;12.23;5.87;;;;;;;11.54;65.27;99656.72;125240;1099;104136;-78
2021/05/14 00:42:18;;;;;;;13.23;5.70;;;;;;;11.55;65.43;99650.63;125205;1102;104510;-78
2021/05/14 00:44:47;;;;;;;13.70;5.50;;;;;;;11.61;65.88;99653.33;125228;1099;104588;-78
2021/05/14 00:47:19;;;;;;;14.60;5.60;;;;;;;11.66;65.50;99646.44;125323;1102;104143;-78
2021/05/14 00:49:50;;;;;;;12.77;5.50;;;;;;;11.70;65.36;99642.98;126272;1099;104153;-79
2021/05/14 00:52:20;;;;;;;12.73;5.30;;;;;;;11.73;65.46;99642.16;126243;1099;104229;-78
2021/05/14 00:54:52;;;;;;;9.47;5.20;;;;;;;11.72;65.54;99643.91;126243;1099;104230;-78
2021/05/14 00:57:22;;;;;;;14.77;5.50;;;;;;;11.70;65.62;99642.98;126251;1099;101943;-78
2021/05/14 00:59:51;;;;;;;13.47;5.80;;;;;;;11.69;65.79;99644.73;126285;1099;104146;-79
2021/05/14 01:02:21;;;;;;;12.00;5.37;;;;;;;11.69;65.53;99633.35;126156;1099;104159;-79
2021/05/14 01:04:50;;;;;;;11.63;5.40;;;;;;;11.65;65.73;99629.77;126291;1099;104261;-79
2021/05/14 01:07:22;;;;;;;12.53;5.27;;;;;;;11.64;65.73;99627.11;126244;1099;104217;-78
2021/05/14 01:09:54;;;;;;;10.13;5.07;;;;;;;11.65;65.63;99619.25;126238;1099;104137;-79
2021/05/14 01:12:23;;;;;;;10.93;4.90;;;;;;;11.66;65.96;99620.16;126201;1099;104143;-78
2021/05/14 01:14:53;;;;;;;11.60;5.30;;;;;;;11.66;65.74;99621.03;126202;1099;104182;-78
2021/05/14 01:17:24;;;;;;;11.97;5.47;;;;;;;11.67;65.73;99621.91;126304;1098;104130;-78
2021/05/14 01:19:56;;;;;;;10.20;5.23;;;;;;;11.68;65.82;99628.94;126294;1098;104263;-78
2021/05/14 01:22:27;;;;;;;12.80;5.60;;;;;;;11.66;65.91;99614.91;126170;1099;104201;-79
2021/05/14 01:24:57;;;;;;;11.10;5.40;;;;;;;11.63;66.31;99614.84;126306;1099;104190;-79
2021/05/14 01:27:26;;;;;;;15.60;5.80;;;;;;;11.61;66.08;99612.20;126190;1099;104128;-79
2021/05/14 01:29:55;;;;;;;14.70;6.00;;;;;;;11.64;66.09;99613.97;126290;1099;104264;-78
2021/05/14 01:32:25;;;;;;;15.47;5.63;;;;;;;11.64;66.01;99604.37;126239;1099;104208;-78
2021/05/14 01:34:55;;;;;;;15.40;6.07;;;;;;;11.64;65.89;99603.45;126225;1099;104185;-78
2021/05/14 01:37:25;;;;;;;9.50;5.20;;;;;;;11.63;66.08;99602.59;126286;1099;104143;-79
2021/05/14 01:39:56;;;;;;;15.40;6.03;;;;;;;11.65;65.91;99610.49;126293;1099;104139;-79
2021/05/14 01:42:25;;;;;;;9.40;5.17;;;;;;;11.69;66.42;99610.58;126326;1099;104169;-78
2021/05/14 01:44:54;;;;;;;11.00;5.05;;;;;;;11.71;66.12;99597.46;126215;1099;104724;-78
2021/05/14 01:47:24;;;;;;;13.07;5.67;;;;;;;11.72;66.31;99595.70;126206;1099;104210;-78
2021/05/14 01:49:53;;;;;;;13.73;5.57;;;;;;;11.70;66.32;99590.42;126310;1099;104136;-78
2021/05/14 01:52:22;;;;;;;15.17;6.07;;;;;;;11.66;66.17;99583.38;126236;1099;104217;-78
2021/05/14 01:54:51;;;;;;;12.20;5.20;;;;;;;11.62;66.37;99584.16;126243;1099;104195;-78
2021/05/14 01:57:21;;;;;;;12.73;5.67;;;;;;;11.58;66.26;99572.73;126222;1099;104316;-78
2021/05/14 01:59:50;;;;;;;10.87;5.47;;;;;;;11.61;66.45;99575.41;126208;1097;104156;-78
2021/05/14 02:02:21;;;;;;;13.63;5.90;;;;;;;11.62;66.45;99578.91;126298;1099;104146;-78
2021/05/14 02:04:51;;;;;;;12.07;5.50;;;;;;;11.63;66.52;99578.06;126173;1099;104159;-78
2021/05/14 02:07:22;;;;;;;10.37;4.80;;;;;;;11.69;66.57;99576.41;126217;1099;104585;-78
2021/05/14 02:09:52;;;;;;;10.93;4.87;;;;;;;11.71;66.35;99581.69;126189;1099;104198;-78
2021/05/14 02:12:22;;;;;;;10.37;5.33;;;;;;;11.73;66.62;99584.34;126226;1099;104021;-78
2021/05/14 02:14:54;;;;;;;12.03;4.90;;;;;;;11.75;66.77;99582.62;126169;1099;104220;-78
2021/05/14 02:17:23;;;;;;;11.90;5.57;;;;;;;11.74;66.76;99581.74;126167;1099;104137;-79
2021/05/14 02:19:56;;;;;;;11.27;5.60;;;;;;;11.74;67.13;99584.38;126318;1099;104191;-78
2021/05/14 02:22:26;;;;;;;12.67;5.50;;;;;;;11.73;66.63;99587.84;126314;1099;102581;-78
2021/05/14 02:24:55;;;;;;;14.63;5.57;;;;;;;11.75;66.60;99588.78;126096;1099;105858;-78
2021/05/14 02:27:24;;;;;;;16.13;5.53;;;;;;;11.81;66.77;99593.23;126146;1099;104773;-78
2021/05/14 02:29:56;;;;;;;14.87;5.03;;;;;;;11.87;66.67;99593.33;126150;1099;104367;-78
2021/05/14 02:32:26;;;;;;;9.80;5.03;;;;;;;11.92;66.71;99596.03;126133;1099;104332;-78
2021/05/14 02:34:55;;;;;;;9.27;5.40;;;;;;;11.92;66.92;99596.03;126105;1099;104287;-78
2021/05/14 02:37:24;;;;;;;18.23;5.97;;;;;;;11.91;66.57;99597.78;126140;1099;104166;-78
2021/05/14 02:39:55;;;;;;;10.53;5.80;;;;;;;11.91;66.85;99595.16;126133;1099;104171;-79
2021/05/14 02:42:26;;;;;;;13.80;5.70;;;;;;;11.91;67.00;99595.16;126126;1099;104133;-78
2021/05/14 02:44:56;;;;;;;10.03;4.70;;;;;;;11.92;67.05;99603.92;126083;1098;104313;-79
2021/05/14 02:47:28;;;;;;;9.97;4.53;;;;;;;11.91;67.06;99610.05;126149;1099;104175;-78
2021/05/14 02:49:57;;;;;;;10.70;4.77;;;;;;;11.92;66.97;99604.86;126161;1099;104323;-79
2021/05/14 02:52:27;;;;;;;12.03;5.00;;;;;;;11.94;67.01;99610.14;125285;1099;104306;-78
2021/05/14 02:54:57;;;;;;;14.03;5.33;;;;;;;11.96;67.26;99617.17;125416;1099;104232;-78
2021/05/14 02:57:27;;;;;;;13.00;5.27;;;;;;;11.98;67.17;99619.83;125360;1099;104770;-79
2021/05/14 02:59:59;;;;;;;11.00;4.93;;;;;;;11.95;67.58;99618.05;126209;1099;104213;-78
2021/05/14 03:02:28;;;;;;;13.57;6.07;;;;;;;11.95;67.20;99614.52;126161;1099;104287;-79
2021/05/14 03:04:57;;;;;;;11.70;5.90;;;;;;;11.99;67.49;99626.86;126113;1099;104169;-79
2021/05/14 03:07:26;;;;;;;11.90;5.07;;;;;;;12.04;67.51;99627.81;125303;1099;104347;-79
2021/05/14 03:09:56;;;;;;;13.70;5.50;;;;;;;12.05;67.49;99622.58;125315;1099;104137;-77
2021/05/14 03:12:29;;;;;;;16.47;6.37;;;;;;;12.09;67.33;99619.99;125357;1099;104245;-78
2021/05/14 03:15:00;;;;;;;12.67;5.57;;;;;;;12.11;67.91;99613.91;125289;1099;104178;-78
2021/05/14 03:17:29;;;;;;;10.10;5.40;;;;;;;12.12;68.01;99610.39;126162;1099;104436;-78
2021/05/14 03:19:58;;;;;;;12.90;5.33;;;;;;;12.12;67.96;99609.52;126137;1099;104258;-77
2021/05/14 03:22:28;;;;;;;13.37;5.23;;;;;;;12.10;68.05;99604.23;125358;1099;104195;-77
2021/05/14 03:24:57;;;;;;;10.67;5.50;;;;;;;12.12;67.99;99606.89;126139;1099;104134;-77
2021/05/14 03:27:26;;;;;;;12.87;5.80;;;;;;;12.13;68.04;99600.78;126141;1099;104172;-77
2021/05/14 03:29:56;;;;;;;15.17;6.20;;;;;;;12.10;68.02;99593.72;126273;1099;104130;-77
2021/05/14 03:32:25;;;;;;;15.90;6.10;;;;;;;12.07;68.06;99595.43;126254;1098;104583;-77
2021/05/14 03:34:54;;;;;;;11.73;6.10;;;;;;;12.00;68.26;99589.20;126209;1099;104149;-77
2021/05/14 03:37:23;;;;;;;12.80;6.07;;;;;;;11.87;68.06;99583.72;126240;1099;117356;-77
2021/05/14 03:39:55;;;;;;;15.53;6.60;;;;;;;11.79;68.49;99581.81;126205;1099;104349;-77
2021/05/14 03:42:25;;;;;;;14.30;6.57;;;;;;;11.75;68.25;99569.47;126179;1099;104271;-76
2021/05/14 03:44:56;;;;;;;17.03;7.13;;;;;;;11.75;68.70;99580.89;126282;1099;104127;-77
2021/05/14 03:47:25;;;;;;;15.53;7.10;;;;;;;11.78;68.59;99580.94;126183;1099;106446;-77
2021/05/14 03:49:54;;;;;;;15.43;6.93;;;;;;;11.82;68.84;99582.74;126227;1099;104143;-77
2021/05/14 03:52:24;;;;;;;14.17;7.23;;;;;;;11.83;68.68;99584.52;126183;1099;104752;-78
2021/05/14 03:54:53;;;;;;;13.40;7.50;;;;;;;11.87;68.66;99582.81;126213;1099;104134;-77
2021/05/14 03:57:22;;;;;;;13.67;6.33;;;;;;;11.92;68.97;99578.56;126285;1099;104245;-77
2021/05/14 03:59:51;;;;;;;15.17;6.83;;;;;;;11.96;69.06;99566.34;126171;1099;104139;-78
2021/05/14 04:02:21;;;;;;;15.67;7.07;;;;;;;12.01;69.11;99564.66;126195;1099;104242;-77
2021/05/14 04:04:51;;;;;;;14.13;6.90;;;;;;;12.09;68.98;99568.31;126248;1099;104207;-77
2021/05/14 04:07:22;;;;;;;10.47;5.90;;;;;;;12.17;68.96;99571.02;126210;1099;104205;-77
2021/05/14 04:10:00;;;;;;;15.60;6.63;;;;;;;12.20;69.03;99557.91;126194;1098;104309;-77
2021/05/14 04:15:14;;;;;;;15.10;6.77;;;;;;;12.23;69.12;99550.97;126087;1099;104140;-77
2021/05/14 04:17:43;;;;;;;14.20;7.47;;;;;;;12.22;69.31;99538.67;126001;1097;104159;-76
2021/05/14 04:20:15;;;;;;;17.73;7.37;;;;;;;12.19;69.18;99520.22;126155;1099;104178;-78
2021/05/14 04:22:45;;;;;;;17.47;7.73;;;;;;;12.14;69.26;99519.28;126144;1099;104255;-77
2021/05/14 04:25:14;;;;;;;17.13;8.20;;;;;;;12.14;69.40;99527.17;126261;1099;104127;-77
2021/05/14 04:27:45;;;;;;;18.10;8.00;;;;;;;12.14;69.42;99528.89;126174;1099;104139;-78
2021/05/14 04:30:16;;;;;;;17.90;7.97;;;;;;;12.15;69.60;99531.55;126168;1099;104306;-78
2021/05/14 04:32:46;;;;;;;16.03;7.60;;;;;;;12.14;69.41;99521.91;126281;1099;104143;-78
2021/05/14 04:35:15;;;;;;;15.73;7.80;;;;;;;12.14;69.54;99524.55;126186;1099;104159;-78
2021/05/14 04:37:44;;;;;;;17.27;8.67;;;;;;;12.15;69.58;99534.17;126066;1097;104175;-78
2021/05/14 04:40:14;;;;;;;16.13;7.70;;;;;;;12.16;69.65;99533.33;126118;1099;104676;-78
2021/05/14 04:42:44;;;;;;;14.00;8.10;;;;;;;12.21;69.77;99539.52;126049;1099;104156;-78
2021/05/14 04:45:16;;;;;;;14.07;7.50;;;;;;;12.27;69.97;99529.97;126028;1099;104214;-78
2021/05/14 04:47:45;;;;;;;15.07;7.27;;;;;;;12.32;69.70;99546.69;126061;1099;104753;-76
2021/05/14 04:50:17;;;;;;;16.03;7.73;;;;;;;12.35;70.14;99558.13;126006;1099;104238;-76
2021/05/14 04:52:47;;;;;;;13.97;7.30;;;;;;;12.38;70.17;99565.19;125985;1099;104185;-77
2021/05/14 04:55:18;;;;;;;14.47;7.97;;;;;;;12.43;69.85;99571.38;125885;1099;104275;-77
2021/05/14 04:57:47;;;;;;;17.20;8.27;;;;;;;12.48;70.19;99569.72;125782;1099;104242;-77
2021/05/14 05:00:18;;;;;;;15.27;7.77;;;;;;;12.53;70.11;99575.91;125875;1098;104146;-76
2021/05/14 05:02:48;;;;;;;14.17;7.40;;;;;;;12.54;70.23;99576.78;125893;1099;104223;-77
2021/05/14 05:05:18;;;;;;;16.57;8.80;;;;;;;12.51;70.17;99593.44;125844;1099;104274;-76
2021/05/14 05:07:47;;;;;;;16.77;7.87;;;;;;;12.47;70.14;99594.25;125765;1099;104175;-77
2021/05/14 05:10:19;;;;;;;16.60;8.53;;;;;;;12.44;70.49;99598.59;125946;1098;104644;-77
2021/05/14 05:12:49;;;;;;;18.20;9.23;;;;;;;12.45;70.31;99609.14;125960;1099;104139;-79
2021/05/14 05:15:19;;;;;;;15.83;8.53;;;;;;;12.52;70.33;99613.61;126096;1099;104175;-79
2021/05/14 05:17:51;;;;;;;14.43;7.93;;;;;;;12.59;70.29;99607.58;125993;1099;102499;-79
2021/05/14 05:20:23;;;;;;;14.27;7.30;;;;;;;12.65;70.29;99611.14;125851;1099;104178;-80
2021/05/14 05:22:56;;;;;;;13.40;7.27;;;;;;;12.73;70.56;99605.13;125916;1099;104360;-78
2021/05/14 05:25:27;;;;;;;15.10;7.60;;;;;;;12.79;70.30;99612.19;125897;1099;104169;-79
2021/05/14 05:27:56;;;;;;;17.23;7.70;;;;;;;12.87;70.32;99615.83;125939;1099;101890;-78
2021/05/14 05:30:28;;;;;;;15.20;8.07;;;;;;;12.91;70.58;99620.24;126071;1099;104417;-79
2021/05/14 05:32:57;;;;;;;16.67;8.30;;;;;;;12.98;70.55;99621.22;125839;1099;104168;-79
2021/05/14 05:35:32;;;;;;;15.57;7.97;;;;;;;13.04;70.25;99621.30;125644;1099;104246;-81
2021/05/14 05:38:15;;;;;;;14.77;8.10;;;;;;;13.17;70.56;99630.21;125117;1099;104326;-77
2021/05/14 05:40:49;;;;;;;17.17;8.43;;;;;;;13.25;70.54;99633.80;125161;1099;104241;-78
2021/05/14 05:43:22;;;;;;;15.67;8.23;;;;;;;13.37;70.48;99626.92;125597;1099;104166;-77
2021/05/14 05:45:56;;;;;;;17.17;8.03;;;;;;;13.46;70.39;99627.92;125011;1099;104353;-77
2021/05/14 05:48:26;;;;;;;15.70;7.87;;;;;;;13.59;70.31;99626.28;125481;1099;104168;-78
2021/05/14 05:50:58;;;;;;;16.53;7.53;;;;;;;13.77;70.35;99622.04;125103;1099;104216;-77
2021/05/14 05:53:29;;;;;;;13.07;7.57;;;;;;;13.96;70.51;99623.97;125690;1099;104200;-77
2021/05/14 05:56:00;;;;;;;16.65;8.30;;;;;;;14.15;70.57;99626.75;125574;1099;104175;-79
2021/05/14 05:58:35;;;;;;;16.37;8.43;;;;;;;14.32;70.20;99624.20;125755;1099;104334;-79
2021/05/14 06:01:15;;;;;;;14.90;8.60;;;;;;;14.43;70.33;99625.17;125651;1099;104261;-79
2021/05/14 06:03:48;;;;;;;16.97;8.73;;;;;;;14.48;69.73;99627.84;125702;1099;104262;-79
2021/05/14 06:06:19;;;;;;;18.13;9.00;;;;;;;14.56;69.96;99628.76;125765;1099;104236;-79
2021/05/14 06:08:51;;;;;;;16.07;9.23;;;;;;;14.72;69.84;99630.66;125802;1099;104159;-78
2021/05/14 06:11:25;;;;;;;17.20;9.40;;;;;;;14.89;70.01;99625.41;125795;1099;104164;-78
2021/05/14 06:13:55;;;;;;;14.93;9.03;;;;;;;15.08;70.69;99633.41;126052;1099;104136;-77
2021/05/14 06:16:27;;;;;;;17.27;8.07;;;;;;;15.21;69.70;99637.88;125998;1099;104191;-77
2021/05/14 06:19:07;;;;;;;14.63;7.90;;;;;;;15.31;70.46;99632.62;126146;1099;104163;-78
2021/05/14 06:21:44;;;;;;;15.03;7.60;;;;;;;15.37;70.24;99633.50;126042;1099;104246;-79
2021/05/14 06:24:17;;;;;;;16.53;8.00;;;;;;;15.41;70.51;99627.36;125823;1097;104364;-78
2021/05/14 06:26:48;;;;;;;14.07;7.93;;;;;;;15.43;69.71;99630.00;125958;1099;104156;-77
2021/05/14 06:29:22;;;;;;;12.00;6.40;;;;;;;15.48;70.67;99622.08;125902;1099;104195;-79
2021/05/14 06:31:56;;;;;;;15.53;7.53;;;;;;;15.61;70.21;99630.04;125910;1099;104185;-78
2021/05/14 06:34:27;;;;;;;16.23;8.03;;;;;;;15.79;70.40;99618.61;125778;1099;104213;-79
2021/05/14 06:37:00;;;;;;;11.75;7.05;;;;;;;16.02;69.89;99625.67;125759;1099;104265;-77
2021/05/14 06:39:34;;;;;;;11.47;6.13;;;;;;;16.19;70.14;99617.72;125977;1099;104163;-77
2021/05/14 06:42:03;;;;;;;;;;;;;;;16.38;70.85;99617.66;125992;1099;104309;-78
2021/05/14 06:44:40;;;;;;;9.20;5.50;;;;;;;16.49;70.48;99611.47;125914;1099;104203;-79
2021/05/14 06:47:16;;;;;;;11.47;5.27;;;;;;;16.62;70.51;99611.44;126025;1099;104171;-79
2021/05/14 06:49:49;;;;;;;7.77;4.90;;;;;;;16.75;70.34;99605.23;125978;1098;104159;-77
2021/05/14 06:52:23;;;;;;;14.57;5.70;;;;;;;16.87;70.31;99596.36;126093;1099;104169;-77
2021/05/14 06:54:53;;;;;;;9.90;5.40;;;;;;;17.02;69.96;99611.32;125978;1099;104659;-78
2021/05/14 06:57:31;;;;;;;11.63;5.37;;;;;;;17.21;70.19;99607.67;126048;1099;104175;-77
2021/05/14 07:00:12;;;;;;;7.23;4.73;;;;;;;17.42;70.03;99606.67;125981;1099;104038;-78
2021/05/14 07:02:49;;;;;;;9.97;4.40;;;;;;;17.55;69.39;99603.94;125868;1099;104194;-79
2021/05/14 07:05:22;;;;;;;8.07;5.03;;;;;;;17.66;69.69;99604.73;125925;1099;104175;-77
2021/05/14 07:07:55;;;;;;;9.93;4.90;;;;;;;17.78;69.83;99603.77;125852;1099;104139;-76
2021/05/14 07:10:27;;;;;;;8.18;5.12;;;;;;;17.82;69.56;99602.83;126038;1098;104162;-76
2021/05/14 07:13:02;;;;;;;11.13;4.40;;;;;;;18.02;69.35;99601.82;125842;1099;104211;-77
2021/05/14 07:15:32;;;;;;;8.50;4.57;;;;;;;18.15;69.29;99600.80;125882;1099;104341;-76
2021/05/14 07:18:03;;;;;;;8.47;4.67;;;;;;;18.14;68.74;99599.05;125814;1099;104195;-77
2021/05/14 07:20:36;;;;;;;9.00;4.40;;;;;;;18.14;69.05;99599.05;125813;1099;104178;-78
2021/05/14 07:23:11;;;;;;;10.33;4.70;;;;;;;18.24;69.36;99591.88;125762;1099;104179;-79
2021/05/14 07:25:45;;;;;;;10.30;4.07;;;;;;;18.39;69.40;99594.38;125722;1099;104266;-80
2021/05/14 07:28:18;;;;;;;10.70;5.60;;;;;;;18.49;69.04;99595.14;125829;1099;104257;-79
2021/05/14 07:30:48;;;;;;;6.70;4.03;;;;;;;18.54;69.04;99589.78;125805;1099;104172;-77
2021/05/14 07:33:19;;;;;;;5.40;3.90;;;;;;;18.67;68.75;99592.28;125850;1099;104269;-78
2021/05/14 07:35:50;;;;;;;7.50;4.00;;;;;;;18.74;68.22;99598.39;125790;1099;104140;-77
2021/05/14 07:38:20;;;;;;;9.60;4.87;;;;;;;18.79;68.85;99593.02;125585;1099;104781;-77
2021/05/14 07:41:07;;;;;;;7.63;4.50;;;;;;;18.95;68.41;99599.95;125751;1099;104255;-77
2021/05/14 07:43:47;;;;;;;11.25;4.47;;;;;;;19.07;68.56;99584.72;125811;1099;104137;-78
2021/05/14 07:46:25;;;;;;;8.07;4.27;;;;;;;19.36;68.26;99592.30;125911;1098;104172;-76
2021/05/14 07:48:58;;;;;;;6.13;3.60;;;;;;;19.68;67.75;99585.58;125997;1099;104137;-79
2021/05/14 07:51:28;;;;;;;7.87;4.40;;;;;;;19.71;67.39;99588.19;126018;1099;104189;-79
2021/05/14 07:53:58;;;;;;;8.03;4.20;;;;;;;19.77;67.34;99592.58;126083;1099;104354;-81
2021/05/14 07:56:28;;;;;;;7.37;4.13;;;;;;;19.83;67.02;99589.81;126084;1099;104226;-77
2021/05/14 07:58:59;;;;;;;11.13;4.73;;;;;;;19.89;66.58;99592.38;125778;1099;104309;-76
2021/05/14 08:01:29;;;;;;;6.03;3.90;;;;;;;19.84;66.98;99596.91;125901;1099;104194;-78
2021/05/14 08:04:01;;;;;;;10.17;4.40;;;;;;;19.86;67.23;99603.08;126068;1099;104258;-77
2021/05/14 08:06:30;;;;;;;6.80;4.50;;;;;;;19.75;66.37;99592.57;125899;1099;104303;-77
2021/05/14 08:09:06;;;;;;;8.77;3.73;;;;;;;19.92;66.17;99590.53;126070;1099;104168;-78
2021/05/14 08:11:46;;;;;;;6.47;4.17;;;;;;;20.16;65.00;99592.80;125981;1099;104172;-81
2021/05/14 08:14:28;;;;;;;9.07;4.10;;;;;;;20.14;65.09;99592.82;125977;1099;102255;-81
2021/05/14 08:17:09;;;;;;;7.20;4.20;;;;;;;20.16;64.48;99590.13;125928;1099;104162;-80
2021/05/14 08:19:54;;;;;;;9.07;4.03;;;;;;;20.16;65.59;99587.47;126005;1099;104230;-81
2021/05/14 08:22:40;;;;;;;7.83;3.97;;;;;;;20.18;64.86;99588.31;126029;1099;104140;-79
2021/05/14 08:25:19;;;;;;;7.17;3.90;;;;;;;20.19;64.67;99590.95;125807;1099;104611;-80
2021/05/14 08:28:05;;;;;;;5.73;3.73;;;;;;;20.14;64.87;99597.28;125742;1099;102439;-79
2021/05/14 08:30:39;;;;;;;7.10;4.13;;;;;;;20.08;64.08;99592.93;125741;1099;104255;-79
2021/05/14 08:33:26;;;;;;;9.05;4.50;;;;;;;20.05;64.44;99593.85;125716;1099;107214;-79
2021/05/14 08:36:14;;;;;;;7.40;4.03;;;;;;;20.19;63.95;99592.73;125901;1098;104159;-81
2021/05/14 08:38:50;;;;;;;9.40;4.90;;;;;;;20.31;64.61;99595.18;125798;1099;104207;-82
2021/05/14 08:41:34;;;;;;;13.90;5.67;;;;;;;20.46;64.12;99596.69;125900;1099;104322;-79
2021/05/14 08:44:18;;;;;;;9.53;4.90;;;;;;;20.71;63.84;99593.55;126003;1099;104143;-81
2021/05/14 08:46:51;;;;;;;8.60;4.60;;;;;;;20.93;63.57;99596.67;125165;1099;104275;-78
2021/05/14 08:49:28;;;;;;;8.13;4.33;;;;;;;21.12;62.22;99602.48;126005;1099;104182;-80
2021/05/14 08:52:12;;;;;;;9.20;4.80;;;;;;;21.15;61.99;99600.61;125860;1099;104293;-79
2021/05/14 08:55:05;;;;;;;9.30;4.67;;;;;;;21.30;62.80;99595.84;125675;1099;102875;-80
2021/05/14 08:57:35;;;;;;;7.67;4.43;;;;;;;21.44;62.33;99585.75;125651;1099;104178;-81
2021/05/14 09:00:21;;;;;;;8.83;4.87;;;;;;;21.37;61.78;99590.33;124980;1103;102163;-82
2021/05/14 09:03:19;;;;;;;8.20;5.10;;;;;;;21.39;61.66;99600.09;124877;1099;104454;-81
2021/05/14 09:06:32;;;;;;;11.03;5.10;;;;;;;21.41;61.72;99583.15;125335;1102;102138;-81
2021/05/14 09:09:56;;;;;;;9.07;4.87;;;;;;;21.40;60.77;99583.19;125213;1099;104179;-83
2021/05/14 09:19:08;;;;;;;14.87;5.70;;;;;;;21.10;61.69;99591.84;125110;1102;102965;-82
2021/05/14 09:22:20;;;;;;;9.80;5.87;;;;;;;20.85;60.90;99587.93;125095;1099;104242;-83
2021/05/14 09:26:13;;;;;;;13.30;5.97;;;;;;;20.72;61.52;99585.52;125279;1099;104227;-82
2021/05/14 09:28:58;;;;;;;11.43;6.63;;;;;;;20.89;60.92;99592.30;125320;1099;104159;-82
2021/05/14 09:31:52;;;;;;;13.93;6.40;;;;;;;21.07;60.75;99583.91;125663;1099;104569;-82
2021/05/14 09:34:44;;;;;;;9.73;5.93;;;;;;;21.38;60.22;99585.89;125083;1102;104159;-80
2021/05/14 09:37:26;;;;;;;10.27;6.13;;;;;;;21.60;59.81;99578.27;125074;1102;104015;-82
2021/05/14 09:40:53;;;;;;;11.63;6.40;;;;;;;21.65;59.79;99578.16;125002;1102;104162;-80
2021/05/14 09:43:55;;;;;;;11.60;6.63;;;;;;;21.76;60.34;99584.11;126063;1099;104440;-84
2021/05/14 09:46:33;;;;;;;8.63;5.90;;;;;;;21.96;59.55;99577.40;125076;1099;107397;-82
2021/05/14 09:49:20;;;;;;;11.60;6.67;;;;;;;22.15;59.60;99573.31;125187;1099;104239;-83
2021/05/14 09:52:13;;;;;;;14.67;6.20;;;;;;;22.39;59.44;99576.27;125103;1099;104170;-82
2021/05/14 09:54:53;;;;;;;9.43;5.80;;;;;;;22.45;58.45;99576.09;125082;1099;104265;-81
2021/05/14 10:00:56;;;;;;;10.67;5.87;;;;;;;22.69;58.09;99576.31;125347;1100;104418;-82
2021/05/14 10:07:06;;;;;;;16.13;5.63;;;;;;;22.72;58.03;99566.43;126235;1099;112940;-82
2021/05/14 10:09:50;;;;;;;9.28;5.72;;;;;;;22.81;57.24;99567.94;126252;1099;102192;-81
2021/05/14 10:12:27;;;;;;;8.70;5.80;;;;;;;22.89;57.04;99568.61;126285;1099;102984;-81
2021/05/14 10:15:08;;;;;;;10.97;6.47;;;;;;;22.88;56.61;99568.66;126270;1099;101848;-81
2021/05/14 10:17:46;;;;;;;9.90;5.60;;;;;;;22.65;56.90;99564.84;126232;1102;101765;-82
2021/05/14 10:20:24;;;;;;;11.20;6.00;;;;;;;22.48;56.44;99562.64;126271;1099;101707;-81
2021/05/14 10:23:21;;;;;;;11.57;5.83;;;;;;;22.52;57.05;99560.78;125557;1099;102421;-82
2021/05/14 10:25:54;;;;;;;;;;;;;;;22.62;56.09;99551.56;125344;1102;104213;-81
2021/05/14 10:28:30;;;;;;;13.03;5.30;;;;;;;22.65;56.26;99550.61;125681;1099;102036;-81
2021/05/14 10:31:27;;;;;;;9.30;5.50;;;;;;;22.50;55.68;99542.11;125212;1099;104308;-81
2021/05/14 10:33:58;;;;;;;9.27;5.93;;;;;;;22.50;55.74;99549.23;125247;1099;104494;-81
2021/05/14 10:36:47;;;;;;;11.50;6.10;;;;;;;22.54;55.83;99550.91;124947;1099;104293;-80
2021/05/14 10:39:39;;;;;;;10.77;5.30;;;;;;;22.57;55.81;99554.37;126856;1099;102362;-81
2021/05/14 10:42:41;;;;;;;12.10;5.40;;;;;;;22.51;55.79;99549.20;125225;1099;104146;-81
2021/05/14 10:45:41;;;;;;;15.43;5.60;;;;;;;22.39;55.33;99547.77;125442;1102;104099;-81
2021/05/14 10:48:28;;;;;;;12.47;4.93;;;;;;;22.23;55.31;99559.75;125412;1100;104176;-82
2021/05/14 10:51:17;;;;;;;9.93;5.27;;;;;;;21.99;54.57;99561.30;125515;1102;104246;-81
2021/05/14 10:53:53;;;;;;;11.93;5.87;;;;;;;21.75;55.17;99566.32;125651;1102;104435;-81
2021/05/14 10:56:57;;;;;;;9.80;5.57;;;;;;;21.43;55.56;99556.42;125742;1102;102264;-82
2021/05/14 10:59:45;;;;;;;24.50;7.25;;;;;;;21.01;56.29;99560.04;126323;1093;103034;-80
2021/05/14 11:02:41;;;;;;;17.03;7.20;;;;;;;20.70;56.20;99557.16;125582;1102;104149;-80
2021/05/14 11:06:11;;;;;;;13.10;6.60;;;;;;;20.37;56.79;99549.77;125245;1102;102181;-81
2021/05/14 11:09:21;;;;;;;15.80;6.93;;;;;;;20.06;56.51;99558.34;125232;1102;101939;-79
2021/05/14 11:12:02;;;;;;;14.93;6.97;;;;;;;20.18;57.82;99559.91;124852;1102;104141;-78
2021/05/14 11:14:54;;;;;;;16.43;6.80;;;;;;;20.41;57.00;99548.82;124785;1102;104328;-79
2021/05/14 11:17:24;;;;;;;13.90;6.70;;;;;;;20.70;57.17;99555.36;124829;1105;104169;-79
2021/05/14 11:19:56;;;;;;;11.95;6.10;;;;;;;21.03;57.53;99549.34;125048;1102;104178;-81
2021/05/14 11:22:58;;;;;;;11.10;5.83;;;;;;;21.31;57.44;99549.58;125034;1102;102903;-82
2021/05/14 11:25:41;;;;;;;8.43;5.20;;;;;;;21.39;57.30;99544.06;125302;1102;104163;-82
2021/05/14 11:28:14;;;;;;;12.73;6.00;;;;;;;21.56;57.21;99549.02;125083;1102;104188;-81
2021/05/14 11:31:13;;;;;;;12.93;6.10;;;;;;;21.61;57.10;99545.31;125157;1102;104248;-79
2021/05/14 11:33:49;;;;;;;11.33;6.13;;;;;;;21.64;57.31;99539.89;124894;1102;104210;-80
2021/05/14 11:36:22;;;;;;;10.67;6.37;;;;;;;21.69;57.21;99535.34;124873;1102;104226;-80
2021/05/14 11:38:56;;;;;;;13.37;6.60;;;;;;;21.71;57.25;99537.97;125082;1102;104191;-80
2021/05/14 11:41:35;;;;;;;13.37;6.30;;;;;;;21.65;56.95;99547.00;124859;1102;104207;-80
2021/05/14 11:44:32;;;;;;;;;;;;;;;;;;;;;
2021/05/14 11:47:13;;;;;;;;;;;;;;;21.84;56.38;99542.06;125122;1105;104204;-80
2021/05/14 11:53:26;;;;;;;12.37;6.22;;;;;;;21.97;57.03;99531.05;125046;1106;104242;-80
2021/05/14 11:56:10;;;;;;;10.43;6.10;;;;;;;21.92;56.59;99532.98;124812;1109;104232;-84
2021/05/14 12:02:38;;;;;;;11.23;5.47;;;;;;;21.86;57.14;99534.01;125012;1105;104368;-81
2021/05/14 12:09:13;;;;;;;9.70;6.17;;;;;;;21.48;56.81;99544.70;125476;1105;102369;-81
2021/05/14 12:11:51;;;;;;;7.97;5.17;;;;;;;21.37;56.15;99539.62;124899;1104;102464;-82
2021/05/14 12:14:32;;;;;;;14.27;5.30;;;;;;;21.26;55.98;99546.15;125127;1103;104165;-81
2021/05/14 12:17:08;;;;;;;8.20;5.03;;;;;;;21.12;56.92;99558.00;124843;1102;103059;-80
2021/05/14 12:19:53;;;;;;;13.30;5.40;;;;;;;20.91;56.66;99561.14;124876;1105;104371;-81
2021/05/14 12:22:44;;;;;;;10.90;4.17;;;;;;;20.54;56.04;99570.76;125038;1105;104182;-81